sensor_id;sensor_type;location;lat;lon;timestamp;pressure;altitude;pressure_sealevel;temperature;humidity
78894;BME280;68282;42.698;23.350;2023-07-13T00:00:17;95669.81;;;25.66;45.05
78894;BME280;68282;42.698;23.350;2023-07-13T00:02:43;95669.66;;;25.62;45.30
78894;BME280;68282;42.698;23.350;2023-07-13T00:05:09;95674.22;;;25.58;45.20
78894;BME280;68282;42.698;23.350;2023-07-13T00:07:35;95671.13;;;25.51;44.62
78894;BME280;68282;42.698;23.350;2023-07-13T00:10:02;95682.13;;;25.56;45.45
78894;BME280;68282;42.698;23.350;2023-07-13T00:12:32;95681.13;;;25.52;45.34
78894;BME280;68282;42.698;23.350;2023-07-13T00:14:59;95680.63;;;25.50;45.60
78894;BME280;68282;42.698;23.350;2023-07-13T00:17:26;95671.59;;;25.44;46.05
78894;BME280;68282;42.698;23.350;2023-07-13T00:19:52;95672.28;;;25.41;46.45
78894;BME280;68282;42.698;23.350;2023-07-13T00:22:18;95666.50;;;25.37;46.82
78894;BME280;68282;42.698;23.350;2023-07-13T00:24:44;95661.25;;;25.36;47.24
78894;BME280;68282;42.698;23.350;2023-07-13T00:27:10;95667.19;;;25.43;47.60
78894;BME280;68282;42.698;23.350;2023-07-13T00:29:36;95655.34;;;25.37;47.86
78894;BME280;68282;42.698;23.350;2023-07-13T00:32:06;95662.91;;;25.37;48.32
78894;BME280;68282;42.698;23.350;2023-07-13T00:34:31;95648.47;;;25.26;48.31
78894;BME280;68282;42.698;23.350;2023-07-13T00:36:57;95661.09;;;25.32;48.72
78894;BME280;68282;42.698;23.350;2023-07-13T00:39:22;95655.69;;;25.36;48.78
78894;BME280;68282;42.698;23.350;2023-07-13T00:41:48;95648.31;;;25.31;49.05
78894;BME280;68282;42.698;23.350;2023-07-13T00:44:15;95659.28;;;25.36;49.11
78894;BME280;68282;42.698;23.350;2023-07-13T00:46:41;95657.97;;;25.34;49.59
78894;BME280;68282;42.698;23.350;2023-07-13T00:49:10;95666.00;;;25.26;50.05
78894;BME280;68282;42.698;23.350;2023-07-13T00:51:44;95658.63;;;25.22;50.70
78894;BME280;68282;42.698;23.350;2023-07-13T00:54:15;95662.88;;;25.28;50.79
78894;BME280;68282;42.698;23.350;2023-07-13T00:56:43;95658.16;;;25.28;50.88
78894;BME280;68282;42.698;23.350;2023-07-13T00:59:11;95661.72;;;25.29;51.05
78894;BME280;68282;42.698;23.350;2023-07-13T01:01:38;95666.81;;;25.27;51.34
78894;BME280;68282;42.698;23.350;2023-07-13T01:04:04;95655.19;;;25.16;51.71
78894;BME280;68282;42.698;23.350;2023-07-13T01:06:33;95654.50;;;25.10;51.69
78894;BME280;68282;42.698;23.350;2023-07-13T01:08:59;95653.50;;;25.06;52.16
78894;BME280;68282;42.698;23.350;2023-07-13T01:11:24;95649.75;;;25.02;52.40
78894;BME280;68282;42.698;23.350;2023-07-13T01:13:51;95653.34;;;25.03;52.36
78894;BME280;68282;42.698;23.350;2023-07-13T01:16:26;95643.19;;;24.98;52.48
78894;BME280;68282;42.698;23.350;2023-07-13T01:18:52;95650.91;;;25.01;52.50
78894;BME280;68282;42.698;23.350;2023-07-13T01:21:17;95649.88;;;24.97;52.74
78894;BME280;68282;42.698;23.350;2023-07-13T01:23:44;95651.03;;;24.96;52.78
78894;BME280;68282;42.698;23.350;2023-07-13T01:26:10;95648.41;;;24.91;52.79
78894;BME280;68282;42.698;23.350;2023-07-13T01:28:37;95651.50;;;24.89;53.27
78894;BME280;68282;42.698;23.350;2023-07-13T01:31:03;95644.97;;;24.85;53.78
78894;BME280;68282;42.698;23.350;2023-07-13T01:33:29;95643.44;;;24.79;53.73
78894;BME280;68282;42.698;23.350;2023-07-13T01:35:55;95653.31;;;24.85;53.79
78894;BME280;68282;42.698;23.350;2023-07-13T01:38:23;95635.75;;;24.76;54.07
78894;BME280;68282;42.698;23.350;2023-07-13T01:40:50;95648.69;;;24.72;53.88
78894;BME280;68282;42.698;23.350;2023-07-13T01:43:16;95654.28;;;24.80;54.06
78894;BME280;68282;42.698;23.350;2023-07-13T01:45:42;95645.72;;;24.77;54.32
78894;BME280;68282;42.698;23.350;2023-07-13T01:48:09;95651.28;;;24.77;54.30
78894;BME280;68282;42.698;23.350;2023-07-13T01:50:34;95643.91;;;24.72;54.32
78894;BME280;68282;42.698;23.350;2023-07-13T01:53:00;95646.41;;;24.74;54.55
78894;BME280;68282;42.698;23.350;2023-07-13T01:55:25;95641.28;;;24.67;54.77
78894;BME280;68282;42.698;23.350;2023-07-13T01:57:51;95638.50;;;24.67;54.38
78894;BME280;68282;42.698;23.350;2023-07-13T02:00:17;95654.88;;;24.68;54.55
78894;BME280;68282;42.698;23.350;2023-07-13T02:02:43;95645.66;;;24.59;54.63
78894;BME280;68282;42.698;23.350;2023-07-13T02:05:09;95660.69;;;24.58;54.98
78894;BME280;68282;42.698;23.350;2023-07-13T02:07:34;95648.88;;;24.52;55.16
78894;BME280;68282;42.698;23.350;2023-07-13T02:10:00;95656.59;;;24.55;54.84
78894;BME280;68282;42.698;23.350;2023-07-13T02:12:25;95657.75;;;24.54;54.98
78894;BME280;68282;42.698;23.350;2023-07-13T02:14:50;95661.66;;;24.53;55.17
78894;BME280;68282;42.698;23.350;2023-07-13T02:17:16;95648.22;;;24.47;55.04
78894;BME280;68282;42.698;23.350;2023-07-13T02:19:41;95658.03;;;24.53;54.92
78894;BME280;68282;42.698;23.350;2023-07-13T02:22:07;95659.00;;;24.48;55.08
78894;BME280;68282;42.698;23.350;2023-07-13T02:24:32;95654.41;;;24.44;55.26
78894;BME280;68282;42.698;23.350;2023-07-13T02:26:59;95662.44;;;24.45;55.07
78894;BME280;68282;42.698;23.350;2023-07-13T02:29:25;95663.41;;;24.41;54.84
78894;BME280;68282;42.698;23.350;2023-07-13T02:31:50;95667.94;;;24.36;54.85
78894;BME280;68282;42.698;23.350;2023-07-13T02:34:16;95665.97;;;24.37;54.93
78894;BME280;68282;42.698;23.350;2023-07-13T02:36:41;95663.34;;;24.32;55.14
78894;BME280;68282;42.698;23.350;2023-07-13T02:39:07;95672.81;;;24.31;55.06
78894;BME280;68282;42.698;23.350;2023-07-13T02:41:32;95665.78;;;24.24;55.27
78894;BME280;68282;42.698;23.350;2023-07-13T02:43:58;95668.06;;;24.31;54.81
78894;BME280;68282;42.698;23.350;2023-07-13T02:46:36;95670.84;;;24.31;54.83
78894;BME280;68282;42.698;23.350;2023-07-13T02:49:02;95666.75;;;24.29;54.98
78894;BME280;68282;42.698;23.350;2023-07-13T02:51:28;95668.28;;;24.35;54.99
78894;BME280;68282;42.698;23.350;2023-07-13T02:53:54;95678.91;;;24.33;54.98
78894;BME280;68282;42.698;23.350;2023-07-13T02:56:24;95664.59;;;24.26;54.73
78894;BME280;68282;42.698;23.350;2023-07-13T02:58:50;95675.72;;;24.26;54.91
78894;BME280;68282;42.698;23.350;2023-07-13T03:01:16;95669.47;;;24.20;55.08
78894;BME280;68282;42.698;23.350;2023-07-13T03:03:48;95678.03;;;24.23;54.91
78894;BME280;68282;42.698;23.350;2023-07-13T03:06:14;95665.53;;;24.12;54.97
78894;BME280;68282;42.698;23.350;2023-07-13T03:08:39;95675.19;;;24.15;55.15
78894;BME280;68282;42.698;23.350;2023-07-13T03:11:11;95684.03;;;24.17;55.16
78894;BME280;68282;42.698;23.350;2023-07-13T03:13:37;95678.28;;;24.13;55.30
78894;BME280;68282;42.698;23.350;2023-07-13T03:16:03;95690.03;;;24.10;55.00
78894;BME280;68282;42.698;23.350;2023-07-13T03:18:29;95680.38;;;24.07;55.04
78894;BME280;68282;42.698;23.350;2023-07-13T03:20:55;95685.94;;;24.07;54.64
78894;BME280;68282;42.698;23.350;2023-07-13T03:23:21;95683.78;;;24.04;55.08
78894;BME280;68282;42.698;23.350;2023-07-13T03:25:47;95687.53;;;24.00;55.11
78894;BME280;68282;42.698;23.350;2023-07-13T03:28:14;95688.16;;;23.97;55.36
78894;BME280;68282;42.698;23.350;2023-07-13T03:30:41;95700.09;;;23.97;55.20
78894;BME280;68282;42.698;23.350;2023-07-13T03:33:07;95697.63;;;23.96;54.97
78894;BME280;68282;42.698;23.350;2023-07-13T03:35:35;95699.59;;;23.95;55.13
78894;BME280;68282;42.698;23.350;2023-07-13T03:38:01;95699.75;;;23.99;55.15
78894;BME280;68282;42.698;23.350;2023-07-13T03:40:27;95702.03;;;23.97;55.41
78894;BME280;68282;42.698;23.350;2023-07-13T03:42:53;95692.66;;;23.92;55.10
78894;BME280;68282;42.698;23.350;2023-07-13T03:45:19;95689.38;;;23.90;55.25
78894;BME280;68282;42.698;23.350;2023-07-13T03:47:44;95695.13;;;23.94;55.35
78894;BME280;68282;42.698;23.350;2023-07-13T03:50:10;95679.72;;;23.88;55.32
78894;BME280;68282;42.698;23.350;2023-07-13T03:52:36;95686.22;;;23.83;55.33
78894;BME280;68282;42.698;23.350;2023-07-13T03:55:01;95686.72;;;23.85;55.04
78894;BME280;68282;42.698;23.350;2023-07-13T03:57:27;95684.47;;;23.87;55.24
78894;BME280;68282;42.698;23.350;2023-07-13T03:59:52;95688.88;;;23.88;55.02
78894;BME280;68282;42.698;23.350;2023-07-13T04:02:18;95689.19;;;23.87;54.76
78894;BME280;68282;42.698;23.350;2023-07-13T04:04:43;95686.22;;;23.83;55.15
78894;BME280;68282;42.698;23.350;2023-07-13T04:07:09;95688.38;;;23.86;55.27
78894;BME280;68282;42.698;23.350;2023-07-13T04:09:35;95689.69;;;23.89;55.22
78894;BME280;68282;42.698;23.350;2023-07-13T04:12:01;95696.25;;;23.93;55.28
78894;BME280;68282;42.698;23.350;2023-07-13T04:14:26;95688.72;;;23.93;54.98
78894;BME280;68282;42.698;23.350;2023-07-13T04:16:52;95688.69;;;23.85;55.52
78894;BME280;68282;42.698;23.350;2023-07-13T04:19:20;95704.00;;;23.96;55.44
78894;BME280;68282;42.698;23.350;2023-07-13T04:21:46;95704.81;;;23.97;55.40
78894;BME280;68282;42.698;23.350;2023-07-13T04:24:11;95700.38;;;23.96;55.22
78894;BME280;68282;42.698;23.350;2023-07-13T04:26:37;95699.84;;;23.93;55.04
78894;BME280;68282;42.698;23.350;2023-07-13T04:29:04;95693.06;;;24.00;55.55
78894;BME280;68282;42.698;23.350;2023-07-13T04:31:30;95702.41;;;24.04;55.13
78894;BME280;68282;42.698;23.350;2023-07-13T04:33:55;95702.41;;;24.04;55.40
78894;BME280;68282;42.698;23.350;2023-07-13T04:36:21;95699.63;;;24.04;55.12
78894;BME280;68282;42.698;23.350;2023-07-13T04:38:46;95701.78;;;24.07;55.01
78894;BME280;68282;42.698;23.350;2023-07-13T04:41:12;95709.34;;;24.15;54.67
78894;BME280;68282;42.698;23.350;2023-07-13T04:43:39;95703.75;;;24.06;54.51
78894;BME280;68282;42.698;23.350;2023-07-13T04:46:13;95702.91;;;24.06;54.78
78894;BME280;68282;42.698;23.350;2023-07-13T04:48:38;95709.59;;;24.05;54.92
78894;BME280;68282;42.698;23.350;2023-07-13T04:51:04;95716.81;;;24.06;55.33
78894;BME280;68282;42.698;23.350;2023-07-13T04:53:30;95714.22;;;24.09;55.25
78894;BME280;68282;42.698;23.350;2023-07-13T04:55:56;95717.19;;;24.13;55.57
78894;BME280;68282;42.698;23.350;2023-07-13T04:58:22;95718.38;;;23.98;54.88
78894;BME280;68282;42.698;23.350;2023-07-13T05:00:48;95733.81;;;24.04;55.37
78894;BME280;68282;42.698;23.350;2023-07-13T05:03:13;95720.84;;;24.00;55.05
78894;BME280;68282;42.698;23.350;2023-07-13T05:05:39;95732.97;;;24.04;55.15
78894;BME280;68282;42.698;23.350;2023-07-13T05:08:05;95730.19;;;24.04;55.29
78894;BME280;68282;42.698;23.350;2023-07-13T05:10:30;95722.38;;;24.06;55.39
78894;BME280;68282;42.698;23.350;2023-07-13T05:12:55;95731.09;;;24.13;54.87
78894;BME280;68282;42.698;23.350;2023-07-13T05:15:22;95729.88;;;24.05;55.08
78894;BME280;68282;42.698;23.350;2023-07-13T05:17:49;95737.97;;;24.16;55.17
78894;BME280;68282;42.698;23.350;2023-07-13T05:20:16;95737.03;;;24.20;54.96
78894;BME280;68282;42.698;23.350;2023-07-13T05:22:43;95736.06;;;24.25;54.95
78894;BME280;68282;42.698;23.350;2023-07-13T05:25:09;95731.72;;;24.33;54.30
78894;BME280;68282;42.698;23.350;2023-07-13T05:27:35;95730.13;;;24.41;54.17
78894;BME280;68282;42.698;23.350;2023-07-13T05:30:02;95734.84;;;24.40;54.30
78894;BME280;68282;42.698;23.350;2023-07-13T05:32:27;95725.72;;;24.39;54.27
78894;BME280;68282;42.698;23.350;2023-07-13T05:34:53;95727.81;;;24.43;54.19
78894;BME280;68282;42.698;23.350;2023-07-13T05:37:18;95731.81;;;24.50;54.12
78894;BME280;68282;42.698;23.350;2023-07-13T05:39:44;95740.97;;;24.51;54.03
78894;BME280;68282;42.698;23.350;2023-07-13T05:42:09;95738.66;;;24.44;54.03
78894;BME280;68282;42.698;23.350;2023-07-13T05:44:35;95735.09;;;24.52;53.72
78894;BME280;68282;42.698;23.350;2023-07-13T05:47:00;95730.66;;;24.51;53.85
78894;BME280;68282;42.698;23.350;2023-07-13T05:49:26;95741.00;;;24.60;53.63
78894;BME280;68282;42.698;23.350;2023-07-13T05:51:51;95728.94;;;24.64;53.89
78894;BME280;68282;42.698;23.350;2023-07-13T05:54:16;95731.91;;;24.68;53.91
78894;BME280;68282;42.698;23.350;2023-07-13T05:56:42;95734.06;;;24.71;53.38
78894;BME280;68282;42.698;23.350;2023-07-13T05:59:08;95724.28;;;24.74;53.14
78894;BME280;68282;42.698;23.350;2023-07-13T06:01:33;95716.56;;;24.70;53.11
78894;BME280;68282;42.698;23.350;2023-07-13T06:03:58;95715.47;;;24.80;52.71
78894;BME280;68282;42.698;23.350;2023-07-13T06:06:24;95717.28;;;24.85;52.63
78894;BME280;68282;42.698;23.350;2023-07-13T06:08:50;95721.56;;;24.91;52.68
78894;BME280;68282;42.698;23.350;2023-07-13T06:11:18;95732.22;;;24.98;52.63
78894;BME280;68282;42.698;23.350;2023-07-13T06:13:44;95731.38;;;24.97;52.32
78894;BME280;68282;42.698;23.350;2023-07-13T06:16:12;95735.19;;;25.01;52.16
78894;BME280;68282;42.698;23.350;2023-07-13T06:18:40;95726.03;;;25.01;52.79
78894;BME280;68282;42.698;23.350;2023-07-13T06:21:18;95720.47;;;25.10;52.78
78894;BME280;68282;42.698;23.350;2023-07-13T06:23:45;95729.50;;;25.15;53.53
78894;BME280;68282;42.698;23.350;2023-07-13T06:26:13;95719.81;;;25.13;52.89
78894;BME280;68282;42.698;23.350;2023-07-13T06:28:38;95735.72;;;25.21;53.08
78894;BME280;68282;42.698;23.350;2023-07-13T06:31:07;95723.91;;;25.15;52.68
78894;BME280;68282;42.698;23.350;2023-07-13T06:33:33;95729.84;;;25.23;52.61
78894;BME280;68282;42.698;23.350;2023-07-13T06:35:59;95714.78;;;25.24;52.55
78894;BME280;68282;42.698;23.350;2023-07-13T06:38:24;95734.78;;;25.35;52.29
78894;BME280;68282;42.698;23.350;2023-07-13T06:40:50;95717.56;;;25.32;52.21
78894;BME280;68282;42.698;23.350;2023-07-13T06:43:15;95728.06;;;25.36;51.91
78894;BME280;68282;42.698;23.350;2023-07-13T06:45:43;95714.97;;;25.36;52.05
78894;BME280;68282;42.698;23.350;2023-07-13T06:48:11;95716.81;;;25.50;51.58
78894;BME280;68282;42.698;23.350;2023-07-13T06:50:36;95710.75;;;25.47;50.97
78894;BME280;68282;42.698;23.350;2023-07-13T06:53:02;95713.72;;;25.51;51.05
78894;BME280;68282;42.698;23.350;2023-07-13T06:55:27;95712.25;;;25.54;50.77
78894;BME280;68282;42.698;23.350;2023-07-13T06:57:53;95718.97;;;25.61;51.05
78894;BME280;68282;42.698;23.350;2023-07-13T07:00:18;95714.38;;;25.66;51.02
78894;BME280;68282;42.698;23.350;2023-07-13T07:02:44;95722.59;;;25.71;50.45
78894;BME280;68282;42.698;23.350;2023-07-13T07:05:09;95716.84;;;25.76;50.55
78894;BME280;68282;42.698;23.350;2023-07-13T07:07:35;95713.41;;;25.79;51.17
78894;BME280;68282;42.698;23.350;2023-07-13T07:10:00;95710.28;;;25.81;50.73
78894;BME280;68282;42.698;23.350;2023-07-13T07:12:26;95705.56;;;25.90;49.78
78894;BME280;68282;42.698;23.350;2023-07-13T07:14:53;95708.81;;;25.92;49.60
78894;BME280;68282;42.698;23.350;2023-07-13T07:17:18;95709.97;;;26.00;49.20
78894;BME280;68282;42.698;23.350;2023-07-13T07:19:44;95706.88;;;26.01;49.29
78894;BME280;68282;42.698;23.350;2023-07-13T07:22:09;95706.06;;;26.10;48.51
78894;BME280;68282;42.698;23.350;2023-07-13T07:24:34;95704.91;;;26.11;48.92
78894;BME280;68282;42.698;23.350;2023-07-13T07:27:00;95715.38;;;26.14;48.10
78894;BME280;68282;42.698;23.350;2023-07-13T07:29:25;95712.28;;;26.15;47.42
78894;BME280;68282;42.698;23.350;2023-07-13T07:31:53;95707.22;;;26.17;47.19
78894;BME280;68282;42.698;23.350;2023-07-13T07:34:19;95694.38;;;26.25;47.57
78894;BME280;68282;42.698;23.350;2023-07-13T07:36:44;95692.72;;;26.24;47.51
78894;BME280;68282;42.698;23.350;2023-07-13T07:39:09;95686.66;;;26.31;47.72
78894;BME280;68282;42.698;23.350;2023-07-13T07:41:35;95690.59;;;26.38;47.32
78894;BME280;68282;42.698;23.350;2023-07-13T07:44:00;95687.63;;;26.44;46.69
78894;BME280;68282;42.698;23.350;2023-07-13T07:46:26;95683.00;;;26.48;47.20
78894;BME280;68282;42.698;23.350;2023-07-13T07:48:51;95680.03;;;26.53;47.64
78894;BME280;68282;42.698;23.350;2023-07-13T07:51:17;95681.00;;;26.57;47.07
78894;BME280;68282;42.698;23.350;2023-07-13T07:53:42;95685.56;;;26.70;46.61
78894;BME280;68282;42.698;23.350;2023-07-13T07:56:08;95668.00;;;26.70;46.42
78894;BME280;68282;42.698;23.350;2023-07-13T07:58:35;95671.94;;;26.78;46.75
78894;BME280;68282;42.698;23.350;2023-07-13T08:01:05;95679.59;;;26.90;46.51
78894;BME280;68282;42.698;23.350;2023-07-13T08:03:31;95683.38;;;26.94;45.58
78894;BME280;68282;42.698;23.350;2023-07-13T08:05:56;95673.97;;;26.98;46.86
78894;BME280;68282;42.698;23.350;2023-07-13T08:08:22;95666.09;;;27.00;45.21
78894;BME280;68282;42.698;23.350;2023-07-13T08:10:47;95662.44;;;27.09;44.39
78894;BME280;68282;42.698;23.350;2023-07-13T08:13:13;95656.84;;;27.09;44.77
78894;BME280;68282;42.698;23.350;2023-07-13T08:15:38;95643.91;;;27.04;45.05
78894;BME280;68282;42.698;23.350;2023-07-13T08:18:05;95660.59;;;27.13;45.41
78894;BME280;68282;42.698;23.350;2023-07-13T08:20:31;95646.94;;;27.20;45.07
78894;BME280;68282;42.698;23.350;2023-07-13T08:22:56;95657.03;;;27.34;45.04
78894;BME280;68282;42.698;23.350;2023-07-13T08:25:22;95650.75;;;27.37;44.37
78894;BME280;68282;42.698;23.350;2023-07-13T08:27:48;95653.34;;;27.42;44.92
78894;BME280;68282;42.698;23.350;2023-07-13T08:30:13;95651.53;;;27.46;44.63
78894;BME280;68282;42.698;23.350;2023-07-13T08:32:39;95646.13;;;27.41;44.13
78894;BME280;68282;42.698;23.350;2023-07-13T08:35:05;95642.00;;;27.47;44.66
78894;BME280;68282;42.698;23.350;2023-07-13T08:37:31;95638.78;;;27.57;46.38
78894;BME280;68282;42.698;23.350;2023-07-13T08:39:56;95628.56;;;27.61;44.78
78894;BME280;68282;42.698;23.350;2023-07-13T08:42:45;95634.28;;;27.65;45.12
78894;BME280;68282;42.698;23.350;2023-07-13T08:47:54;95632.38;;;27.78;44.34
78894;BME280;68282;42.698;23.350;2023-07-13T08:50:26;95630.53;;;27.82;43.71
78894;BME280;68282;42.698;23.350;2023-07-13T08:52:54;95628.22;;;27.84;43.35
78894;BME280;68282;42.698;23.350;2023-07-13T08:55:25;95633.72;;;27.93;43.74
78894;BME280;68282;42.698;23.350;2023-07-13T08:58:12;95637.56;;;28.01;43.08
78894;BME280;68282;42.698;23.350;2023-07-13T09:03:20;95651.50;;;28.10;43.42
78894;BME280;68282;42.698;23.350;2023-07-13T09:05:52;95655.97;;;28.23;43.64
78894;BME280;68282;42.698;23.350;2023-07-13T09:08:54;95654.25;;;28.31;42.95
78894;BME280;68282;42.698;23.350;2023-07-13T09:16:42;95652.19;;;28.40;42.13
78894;BME280;68282;42.698;23.350;2023-07-13T09:19:15;95657.91;;;28.44;41.72
78894;BME280;68282;42.698;23.350;2023-07-13T09:21:44;95651.75;;;28.50;43.05
78894;BME280;68282;42.698;23.350;2023-07-13T09:24:31;95658.41;;;28.58;43.43
78894;BME280;68282;42.698;23.350;2023-07-13T09:27:02;95645.56;;;28.57;43.15
78894;BME280;68282;42.698;23.350;2023-07-13T09:29:33;95643.00;;;28.64;43.31
78894;BME280;68282;42.698;23.350;2023-07-13T09:32:02;95649.69;;;28.72;42.02
78894;BME280;68282;42.698;23.350;2023-07-13T09:34:29;95652.72;;;28.79;42.36
78894;BME280;68282;42.698;23.350;2023-07-13T09:36:57;95645.03;;;28.89;42.62
78894;BME280;68282;42.698;23.350;2023-07-13T09:39:27;95650.41;;;28.94;41.12
78894;BME280;68282;42.698;23.350;2023-07-13T09:47:23;95625.53;;;29.17;42.42
78894;BME280;68282;42.698;23.350;2023-07-13T09:50:01;95627.63;;;29.33;41.25
78894;BME280;68282;42.698;23.350;2023-07-13T09:52:27;95622.63;;;29.38;41.13
78894;BME280;68282;42.698;23.350;2023-07-13T09:55:04;95613.91;;;29.56;40.21
78894;BME280;68282;42.698;23.350;2023-07-13T09:57:29;95613.22;;;29.59;39.97
78894;BME280;68282;42.698;23.350;2023-07-13T09:59:55;95615.06;;;29.67;38.32
78894;BME280;68282;42.698;23.350;2023-07-13T10:05:16;95604.81;;;29.87;40.08
78894;BME280;68282;42.698;23.350;2023-07-13T10:07:45;95598.13;;;29.92;39.08
78894;BME280;68282;42.698;23.350;2023-07-13T10:10:19;95598.47;;;30.03;40.20
78894;BME280;68282;42.698;23.350;2023-07-13T10:12:46;95590.34;;;30.14;38.75
78894;BME280;68282;42.698;23.350;2023-07-13T10:15:19;95594.63;;;30.23;38.55
78894;BME280;68282;42.698;23.350;2023-07-13T10:17:46;95582.31;;;30.28;38.20
78894;BME280;68282;42.698;23.350;2023-07-13T10:20:11;95589.28;;;30.34;37.89
78894;BME280;68282;42.698;23.350;2023-07-13T10:25:19;95587.66;;;30.49;35.45
78894;BME280;68282;42.698;23.350;2023-07-13T10:27:47;95576.66;;;30.57;33.48
78894;BME280;68282;42.698;23.350;2023-07-13T10:30:21;95574.56;;;30.69;33.92
78894;BME280;68282;42.698;23.350;2023-07-13T10:32:50;95560.69;;;30.77;31.64
78894;BME280;68282;42.698;23.350;2023-07-13T10:35:19;95565.31;;;30.85;29.99
78894;BME280;68282;42.698;23.350;2023-07-13T10:37:49;95571.63;;;30.98;30.44
78894;BME280;68282;42.698;23.350;2023-07-13T10:40:29;95567.00;;;31.06;30.13
78894;BME280;68282;42.698;23.350;2023-07-13T10:42:58;95569.25;;;31.16;29.66
78894;BME280;68282;42.698;23.350;2023-07-13T10:45:34;95563.44;;;31.25;28.49
78894;BME280;68282;42.698;23.350;2023-07-13T10:48:01;95550.34;;;31.33;28.49
78894;BME280;68282;42.698;23.350;2023-07-13T10:50:29;95550.78;;;31.35;28.70
78894;BME280;68282;42.698;23.350;2023-07-13T10:53:03;95542.94;;;31.44;29.66
78894;BME280;68282;42.698;23.350;2023-07-13T10:55:32;95540.88;;;31.60;29.25
78894;BME280;68282;42.698;23.350;2023-07-13T10:58:24;95537.19;;;31.76;28.75
78894;BME280;68282;42.698;23.350;2023-07-13T11:01:13;95533.03;;;31.89;28.22
78894;BME280;68282;42.698;23.350;2023-07-13T11:03:54;95531.25;;;32.01;28.47
78894;BME280;68282;42.698;23.350;2023-07-13T11:08:56;95515.13;;;32.21;26.11
78894;BME280;68282;42.698;23.350;2023-07-13T11:18:44;95499.63;;;32.54;25.29
78894;BME280;68282;42.698;23.350;2023-07-13T11:21:29;95506.72;;;32.71;26.45
78894;BME280;68282;42.698;23.350;2023-07-13T11:24:16;95505.75;;;32.87;25.47
78894;BME280;68282;42.698;23.350;2023-07-13T11:31:58;95505.31;;;33.11;26.12
78894;BME280;68282;42.698;23.350;2023-07-13T11:34:30;95489.28;;;33.15;24.58
78894;BME280;68282;42.698;23.350;2023-07-13T11:36:58;95484.13;;;33.21;26.28
78894;BME280;68282;42.698;23.350;2023-07-13T11:39:26;95487.03;;;33.28;25.06
78894;BME280;68282;42.698;23.350;2023-07-13T11:41:58;95478.16;;;33.30;26.21
78894;BME280;68282;42.698;23.350;2023-07-13T11:44:27;95494.88;;;33.42;25.75
78894;BME280;68282;42.698;23.350;2023-07-13T11:46:55;95475.31;;;33.57;24.54
78894;BME280;68282;42.698;23.350;2023-07-13T11:49:25;95473.00;;;33.66;26.17
78894;BME280;68282;42.698;23.350;2023-07-13T11:51:52;95482.31;;;33.70;24.68
78894;BME280;68282;42.698;23.350;2023-07-13T11:56:46;95471.47;;;33.72;25.18
78894;BME280;68282;42.698;23.350;2023-07-13T11:59:12;95465.88;;;33.80;25.57
78894;BME280;68282;42.698;23.350;2023-07-13T12:01:44;95460.72;;;33.85;25.62
78894;BME280;68282;42.698;23.350;2023-07-13T12:04:28;95467.28;;;33.93;25.93
78894;BME280;68282;42.698;23.350;2023-07-13T12:07:14;95464.19;;;34.09;26.39
78894;BME280;68282;42.698;23.350;2023-07-13T12:09:40;95460.63;;;34.16;26.39
78894;BME280;68282;42.698;23.350;2023-07-13T12:12:28;95461.53;;;34.27;25.70
78894;BME280;68282;42.698;23.350;2023-07-13T12:14:54;95452.41;;;34.45;24.88
78894;BME280;68282;42.698;23.350;2023-07-13T12:17:23;95454.84;;;34.46;24.83
78894;BME280;68282;42.698;23.350;2023-07-13T12:19:52;95440.28;;;34.41;23.77
78894;BME280;68282;42.698;23.350;2023-07-13T12:22:20;95437.88;;;34.43;24.42
78894;BME280;68282;42.698;23.350;2023-07-13T12:24:47;95434.28;;;34.49;24.42
78894;BME280;68282;42.698;23.350;2023-07-13T12:27:23;95435.13;;;34.53;24.06
78894;BME280;68282;42.698;23.350;2023-07-13T12:29:59;95421.81;;;34.54;24.12
78894;BME280;68282;42.698;23.350;2023-07-13T12:32:25;95421.03;;;34.57;23.82
78894;BME280;68282;42.698;23.350;2023-07-13T12:34:53;95425.09;;;34.63;24.19
78894;BME280;68282;42.698;23.350;2023-07-13T12:37:19;95417.03;;;34.62;22.99
78894;BME280;68282;42.698;23.350;2023-07-13T12:39:46;95410.59;;;34.65;24.14
78894;BME280;68282;42.698;23.350;2023-07-13T12:42:20;95418.25;;;34.64;22.91
78894;BME280;68282;42.698;23.350;2023-07-13T12:44:48;95398.47;;;34.64;23.35
78894;BME280;68282;42.698;23.350;2023-07-13T12:47:14;95402.16;;;34.68;24.38
78894;BME280;68282;42.698;23.350;2023-07-13T12:50:03;95399.78;;;34.78;23.25
78894;BME280;68282;42.698;23.350;2023-07-13T12:52:33;95391.69;;;34.76;23.94
78894;BME280;68282;42.698;23.350;2023-07-13T12:55:05;95395.34;;;34.80;24.07
78894;BME280;68282;42.698;23.350;2023-07-13T12:57:40;95391.31;;;34.85;23.21
78894;BME280;68282;42.698;23.350;2023-07-13T13:02:45;95389.75;;;34.88;23.38
78894;BME280;68282;42.698;23.350;2023-07-13T13:05:13;95392.56;;;34.88;22.78
78894;BME280;68282;42.698;23.350;2023-07-13T13:07:39;95382.09;;;34.92;22.76
78894;BME280;68282;42.698;23.350;2023-07-13T13:10:11;95382.09;;;34.95;22.13
78894;BME280;68282;42.698;23.350;2023-07-13T13:12:37;95374.03;;;34.94;22.73
78894;BME280;68282;42.698;23.350;2023-07-13T13:15:03;95373.16;;;34.90;22.17
78894;BME280;68282;42.698;23.350;2023-07-13T13:17:30;95359.50;;;34.92;22.45
78894;BME280;68282;42.698;23.350;2023-07-13T13:19:56;95370.88;;;35.06;21.30
78894;BME280;68282;42.698;23.350;2023-07-13T13:22:22;95361.56;;;35.02;22.69
78894;BME280;68282;42.698;23.350;2023-07-13T13:24:48;95370.44;;;35.04;23.00
78894;BME280;68282;42.698;23.350;2023-07-13T13:27:21;95368.06;;;35.13;21.89
78894;BME280;68282;42.698;23.350;2023-07-13T13:29:49;95367.25;;;35.09;21.62
78894;BME280;68282;42.698;23.350;2023-07-13T13:32:17;95364.78;;;35.04;21.64
78894;BME280;68282;42.698;23.350;2023-07-13T13:34:44;95355.94;;;35.06;22.42